KBV weather

Krabi Airport
Krabi, Krabi Province, Thailand

Public forecast

Using degrees Celsius for public forecast. Weather courtesy of forecast.io.

METAR (pilot weather report)

Retrieved 2019/05/24 15:00 UTC (17 minutes ago):

VTSG 241500Z 27003KT 9999 FEW020 SCT100 27/25 Q1011 NOSIG

TAF (pilot weather forecast)

Retrieved 2019/05/24 12:00 UTC (3 hours ago):

TAF VTSG 241100Z 2412/2512 00000KT 9999 FEW020 BECMG 2420/2422 3000 BR BECMG 2500/2502 30006KT 9999 NSW